Time;durP1;ratioP1;P1;durP2;ratioP2;P2;SDS_P1;SDS_P2;PMS_P1;PMS_P2;Temp;Humidity;BMP_temperature;BMP_pressure;BME280_temperature;BME280_humidity;BME280_pressure;Samples;Min_cycle;Max_cycle;Signal;HPM_P1;HPM_P2
2022/01/06 00:01:07;;;;;;;8.77;7.05;;;;;;;2.22;100.00;101652.69;5211167;28;20107;-62
2022/01/06 00:03:38;;;;;;;12.95;7.85;;;;;;;2.26;100.00;101661.97;5210989;28;20029;-62
2022/01/06 00:06:09;;;;;;;13.02;7.53;;;;;;;2.28;100.00;101651.97;5211285;28;20017;-62
2022/01/06 00:08:41;;;;;;;11.15;7.70;;;;;;;2.18;100.00;101638.88;5211072;28;20397;-62
2022/01/06 00:11:13;;;;;;;9.25;6.40;;;;;;;2.48;100.00;101662.91;5210927;28;20396;-59
2022/01/06 00:13:50;;;;;;;18.77;7.88;;;;;;;2.54;100.00;101665.66;5211039;28;20393;-58
2022/01/06 00:24:28;;;;;;;12.02;7.40;;;;;;;2.92;100.00;101694.88;5228985;28;20094;-59
2022/01/06 00:26:59;;;;;;;14.13;6.20;;;;;;;2.90;100.00;101678.22;5210667;28;20477;-60
2022/01/06 00:29:29;;;;;;;8.43;5.95;;;;;;;2.94;100.00;101669.69;5210672;28;20055;-61
2022/01/06 00:32:00;;;;;;;11.05;6.45;;;;;;;2.89;100.00;101672.06;5210662;28;20059;-59
2022/01/06 00:34:30;;;;;;;9.40;6.53;;;;;;;2.81;100.00;101652.69;5210157;28;20036;-59
2022/01/06 00:37:02;;;;;;;10.00;6.95;;;;;;;2.70;100.00;101653.97;5210470;28;20021;-62
2022/01/06 00:39:33;;;;;;;12.32;6.70;;;;;;;2.75;100.00;101672.09;5210389;28;20056;-59
2022/01/06 00:42:03;;;;;;;8.50;6.30;;;;;;;2.65;100.00;101672.34;5210313;28;20067;-59
2022/01/06 00:44:34;;;;;;;7.22;5.90;;;;;;;2.66;100.00;101682.84;5210297;28;20468;-62
2022/01/06 00:47:04;;;;;;;12.95;7.03;;;;;;;2.67;100.00;101681.00;5210146;28;20025;-59
2022/01/06 00:49:35;;;;;;;20.42;6.57;;;;;;;2.44;100.00;101646.44;5209758;28;20555;-59
2022/01/06 00:52:05;;;;;;;7.60;7.00;;;;;;;2.66;100.00;101690.00;5210160;28;20032;-59
2022/01/06 00:54:36;;;;;;;10.40;7.47;;;;;;;2.67;100.00;101689.00;5209759;28;20470;-59
2022/01/06 00:57:06;;;;;;;7.43;6.68;;;;;;;2.68;100.00;101707.50;5210139;28;20031;-62
2022/01/06 00:59:36;;;;;;;22.65;7.40;;;;;;;2.66;100.00;101685.50;5210071;28;20035;-62
2022/01/06 01:02:07;;;;;;;14.80;7.05;;;;;;;2.66;100.00;101695.34;5210302;28;20033;-59
2022/01/06 01:04:38;;;;;;;13.93;6.82;;;;;;;2.64;100.00;101700.03;5209964;28;20020;-58
2022/01/06 01:07:08;;;;;;;9.52;5.47;;;;;;;2.66;100.00;101695.34;5227697;28;20100;-60
2022/01/06 01:09:39;;;;;;;8.52;6.55;;;;;;;2.70;100.00;101700.13;5209830;28;20025;-62
2022/01/06 01:12:09;;;;;;;8.15;6.88;;;;;;;2.74;100.00;101707.78;5209834;28;20028;-59
2022/01/06 01:14:56;;;;;;;12.20;7.68;;;;;;;2.67;100.00;101695.16;5227515;28;20100;-60
2022/01/06 01:17:27;;;;;;;25.08;7.72;;;;;;;2.75;100.00;101709.44;5209848;28;20052;-59
2022/01/06 01:19:58;;;;;;;24.35;8.13;;;;;;;2.78;100.00;101703.72;5209513;28;20117;-62
2022/01/06 01:22:28;;;;;;;8.85;7.20;;;;;;;2.78;100.00;101698.41;5209781;28;20115;-59
2022/01/06 01:24:59;;;;;;;17.45;7.25;;;;;;;2.74;100.00;101689.94;5209488;28;20449;-59
2022/01/06 01:27:35;;;;;;;8.40;6.18;;;;;;;2.74;100.00;101694.44;5209769;28;20044;-59
2022/01/06 01:30:11;;;;;;;16.67;7.03;;;;;;;2.67;100.00;101703.16;5209391;28;20465;-59
2022/01/06 01:32:49;;;;;;;8.35;6.85;;;;;;;2.65;100.00;101705.19;5209746;28;20039;-60
2022/01/06 01:35:19;;;;;;;15.35;7.13;;;;;;;2.64;100.00;101711.53;5209388;28;20489;-59
2022/01/06 01:37:50;;;;;;;15.48;7.85;;;;;;;2.61;100.00;101714.56;5209443;28;20032;-59
2022/01/06 01:40:20;;;;;;;9.25;5.95;;;;;;;2.62;100.00;101726.88;5225835;28;20048;-63
2022/01/06 01:42:51;;;;;;;13.57;7.32;;;;;;;2.66;100.00;101724.69;5209301;28;20024;-61
2022/01/06 01:45:27;;;;;;;9.63;5.85;;;;;;;2.62;100.00;101720.72;5227205;28;20036;-58
2022/01/06 01:48:03;;;;;;;11.57;7.07;;;;;;;2.66;100.00;101732.69;5209099;28;20027;-59
2022/01/06 01:50:34;;;;;;;20.02;6.97;;;;;;;2.52;100.00;101710.34;5208944;28;20024;-60
2022/01/06 01:53:04;;;;;;;15.43;6.63;;;;;;;2.62;100.00;101731.38;5208979;28;20408;-59
2022/01/06 01:55:36;;;;;;;11.80;7.28;;;;;;;2.53;100.00;101733.31;5208606;28;20036;-59
2022/01/06 01:58:08;;;;;;;11.25;7.70;;;;;;;2.48;100.00;101733.03;5208987;28;20045;-61
2022/01/06 02:00:39;;;;;;;7.07;6.47;;;;;;;2.38;100.00;101746.63;5208866;28;20052;-61
2022/01/06 02:03:09;;;;;;;8.35;6.93;;;;;;;2.27;100.00;101751.56;5208214;28;20057;-61
2022/01/06 02:05:40;;;;;;;12.10;6.97;;;;;;;2.11;100.00;101746.34;5208557;28;20508;-59
2022/01/06 02:08:11;;;;;;;8.80;6.28;;;;;;;2.12;100.00;101751.50;5208783;28;20028;-61
2022/01/06 02:10:42;;;;;;;11.50;7.72;;;;;;;2.15;100.00;101764.47;5208577;28;20033;-60
2022/01/06 02:13:13;;;;;;;8.68;6.72;;;;;;;2.15;100.00;101766.31;5208628;28;20013;-61
2022/01/06 02:15:44;;;;;;;10.27;6.32;;;;;;;1.98;100.00;101742.47;5208372;28;20032;-60
2022/01/06 02:18:14;;;;;;;7.22;6.53;;;;;;;1.99;100.00;101761.94;5208327;28;20032;-62
2022/01/06 02:20:44;;;;;;;8.77;7.18;;;;;;;1.75;100.00;101749.59;5208484;28;20452;-62
2022/01/06 02:23:15;;;;;;;12.45;7.18;;;;;;;1.65;100.00;101763.16;5208378;28;20451;-60
2022/01/06 02:25:45;;;;;;;8.57;6.50;;;;;;;1.32;100.00;101735.88;5208167;28;20543;-62
2022/01/06 02:28:18;;;;;;;8.68;7.38;;;;;;;1.20;100.00;101739.09;5208434;28;20159;-59
2022/01/06 02:30:51;;;;;;;16.20;7.35;;;;;;;1.01;100.00;101740.34;5208030;28;20059;-59
2022/01/06 02:33:22;;;;;;;11.02;7.30;;;;;;;1.12;100.00;101763.91;5207915;28;20024;-61
2022/01/06 02:35:54;;;;;;;10.38;8.82;;;;;;;1.03;100.00;101764.94;5208276;28;20385;-59
2022/01/06 02:38:24;;;;;;;10.00;7.13;;;;;;;0.94;100.00;101766.78;5208250;28;20039;-60
2022/01/06 02:40:55;;;;;;;7.70;6.65;;;;;;;0.84;100.00;101774.16;5208205;28;20401;-62
2022/01/06 02:43:26;;;;;;;10.10;9.18;;;;;;;0.76;100.00;101766.19;5207693;28;20544;-62
2022/01/06 02:45:57;;;;;;;12.18;8.88;;;;;;;0.66;100.00;101763.69;5208207;28;20021;-62
2022/01/06 02:48:27;;;;;;;10.05;7.13;;;;;;;0.59;100.00;101759.22;5207810;28;20056;-62
2022/01/06 02:50:58;;;;;;;16.20;7.50;;;;;;;0.57;100.00;101764.72;5207874;28;20025;-60
2022/01/06 02:53:28;;;;;;;9.88;7.97;;;;;;;0.50;100.00;101747.78;5207800;28;20056;-62
2022/01/06 02:56:00;;;;;;;9.27;6.43;;;;;;;0.52;100.00;101761.75;5207909;28;20504;-64
2022/01/06 02:58:30;;;;;;;15.18;9.88;;;;;;;0.44;100.00;101744.97;5208116;28;20021;-61
2022/01/06 03:01:01;;;;;;;8.25;7.57;;;;;;;0.44;100.00;101761.75;5207917;28;20032;-62
2022/01/06 03:03:31;;;;;;;8.13;7.45;;;;;;;0.50;100.00;101773.53;5207585;28;20112;-64
2022/01/06 03:06:02;;;;;;;13.18;7.20;;;;;;;0.47;100.00;101768.53;5207793;28;20063;-63
2022/01/06 03:08:34;;;;;;;10.63;7.13;;;;;;;0.49;100.00;101778.00;5207850;28;20020;-61
2022/01/06 03:11:06;;;;;;;6.63;6.30;;;;;;;0.52;100.00;101777.69;5207785;28;20425;-63
2022/01/06 03:13:37;;;;;;;8.18;7.65;;;;;;;0.55;100.00;101771.22;5207672;28;20112;-61
2022/01/06 03:16:07;;;;;;;14.52;8.82;;;;;;;0.62;100.00;101778.31;5211809;28;20115;-61
2022/01/06 03:18:38;;;;;;;9.98;7.72;;;;;;;0.68;100.00;101782.97;5211897;28;20477;-64
2022/01/06 03:21:08;;;;;;;15.35;7.65;;;;;;;0.74;100.00;101788.59;5211893;28;20032;-63
2022/01/06 03:23:39;;;;;;;17.08;8.75;;;;;;;0.69;100.00;101775.81;5211635;28;20548;-63
2022/01/06 03:26:10;;;;;;;17.20;8.75;;;;;;;0.87;100.00;101787.06;5212334;28;20508;-61
2022/01/06 03:28:40;;;;;;;12.45;7.25;;;;;;;0.91;100.00;101793.72;5212459;28;20029;-61
2022/01/06 03:31:11;;;;;;;12.15;7.85;;;;;;;0.94;100.00;101792.53;5212052;28;20031;-58
2022/01/06 03:33:41;;;;;;;8.13;7.30;;;;;;;1.01;100.00;101801.50;5211557;28;20386;-60
2022/01/06 03:36:12;;;;;;;9.85;8.07;;;;;;;1.01;100.00;101804.16;5211512;28;20039;-60
2022/01/06 03:38:42;;;;;;;12.30;7.45;;;;;;;0.92;100.00;101789.22;5211716;28;20289;-60
2022/01/06 03:41:13;;;;;;;8.60;7.50;;;;;;;0.82;100.00;101786.78;5211534;28;20031;-61
2022/01/06 03:43:43;;;;;;;9.45;8.52;;;;;;;0.67;100.00;101791.09;5211552;28;20362;-60
2022/01/06 03:46:13;;;;;;;9.15;8.35;;;;;;;0.58;100.00;101797.41;5211631;28;20037;-61
2022/01/06 03:48:44;;;;;;;13.07;6.53;;;;;;;0.55;100.00;101798.63;5211898;28;20033;-61
2022/01/06 03:51:15;;;;;;;17.83;7.43;;;;;;;0.31;100.00;101769.38;5212174;28;20021;-61
2022/01/06 03:53:46;;;;;;;12.63;7.25;;;;;;;0.43;100.00;101796.44;5211135;28;20040;-61
2022/01/06 03:56:17;;;;;;;8.32;6.88;;;;;;;0.32;100.00;101802.91;5211465;28;20378;-58
2022/01/06 03:58:49;;;;;;;12.02;8.38;;;;;;;0.19;100.00;101800.78;5211413;28;20036;-60
2022/01/06 04:01:19;;;;;;;9.52;6.93;;;;;;;0.12;100.00;101791.78;5211321;28;20021;-58
2022/01/06 04:03:50;;;;;;;9.73;6.57;;;;;;;0.10;100.00;101788.47;5211155;28;20036;-59
2022/01/06 04:06:20;;;;;;;10.38;6.72;;;;;;;0.27;100.00;101805.25;5211300;28;20497;-57
2022/01/06 04:08:51;;;;;;;25.40;9.00;;;;;;;0.29;100.00;101808.56;5211436;28;20028;-62
2022/01/06 04:11:21;;;;;;;26.40;9.75;;;;;;;0.29;100.00;101798.75;5211035;28;20025;-57
2022/01/06 04:13:52;;;;;;;7.30;6.90;;;;;;;0.33;100.00;101807.22;5227648;28;20036;-60
2022/01/06 04:16:24;;;;;;;7.95;6.78;;;;;;;0.31;100.00;101796.78;5211006;28;20021;-59
2022/01/06 04:18:55;;;;;;;10.55;9.35;;;;;;;0.45;100.00;101805.91;5211015;28;20528;-59
2022/01/06 04:21:25;;;;;;;13.15;10.32;;;;;;;0.50;100.00;101816.06;5210956;28;20104;-58
2022/01/06 04:23:56;;;;;;;10.07;7.28;;;;;;;0.48;100.00;101818.88;5210613;28;20393;-62
2022/01/06 04:26:27;;;;;;;11.43;8.27;;;;;;;0.45;100.00;101813.88;5210460;28;20032;-59
2022/01/06 04:28:57;;;;;;;9.60;7.90;;;;;;;0.41;100.00;101822.34;5210476;28;20032;-60
2022/01/06 04:31:28;;;;;;;8.75;7.55;;;;;;;0.32;100.00;101824.16;5210492;28;20028;-63
2022/01/06 04:33:58;;;;;;;7.32;6.57;;;;;;;0.25;100.00;101818.72;5210546;28;20021;-61
2022/01/06 04:36:29;;;;;;;9.38;6.88;;;;;;;0.19;100.00;101819.34;5210710;28;20017;-60
2022/01/06 04:38:59;;;;;;;8.68;7.25;;;;;;;0.13;100.00;101830.63;5210626;28;20029;-60
2022/01/06 04:41:30;;;;;;;15.00;7.90;;;;;;;0.07;100.00;101828.63;5210439;28;20029;-60
2022/01/06 04:44:00;;;;;;;7.07;6.47;;;;;;;0.03;100.00;101839.72;5209980;28;20028;-60
2022/01/06 04:46:30;;;;;;;8.00;7.05;;;;;;;-0.03;100.00;101842.06;5210965;28;20056;-60
2022/01/06 04:49:01;;;;;;;9.55;6.88;;;;;;;-0.10;100.00;101833.09;5210256;28;20105;-62
2022/01/06 04:51:31;;;;;;;10.88;7.32;;;;;;;-0.30;100.00;101813.13;5210392;28;20032;-61
2022/01/06 04:54:02;;;;;;;7.53;6.80;;;;;;;-0.11;100.00;101839.38;5210032;28;20119;-61
2022/01/06 04:56:36;;;;;;;8.35;7.63;;;;;;;-0.30;100.00;101813.13;5210094;28;20036;-61
2022/01/06 04:59:08;;;;;;;18.55;9.75;;;;;;;-0.16;100.00;101840.88;5210261;28;20032;-60
2022/01/06 05:01:39;;;;;;;8.98;7.13;;;;;;;-0.16;100.00;101848.81;5209944;28;20530;-58
2022/01/06 05:04:09;;;;;;;8.48;6.25;;;;;;;-0.19;100.00;101855.28;5210002;28;20033;-61
2022/01/06 05:06:40;;;;;;;11.10;6.20;;;;;;;-0.21;100.00;101856.44;5210181;28;20090;-60
2022/01/06 05:09:10;;;;;;;10.02;6.63;;;;;;;-0.24;100.00;101854.09;5210259;28;20439;-61
2022/01/06 05:11:40;;;;;;;12.23;6.75;;;;;;;-0.29;100.00;101851.13;5209794;28;20082;-61
2022/01/06 05:14:11;;;;;;;17.00;8.07;;;;;;;-0.41;100.00;101854.06;5209740;28;20021;-60
2022/01/06 05:16:42;;;;;;;5.90;5.28;;;;;;;-0.36;100.00;101867.69;5209875;28;20021;-58
2022/01/06 05:19:12;;;;;;;9.27;6.07;;;;;;;-0.37;100.00;101860.72;5209625;28;20392;-60
2022/01/06 05:21:43;;;;;;;7.70;7.00;;;;;;;-0.41;100.00;101863.84;5209594;28;20477;-63
2022/01/06 05:24:15;;;;;;;14.07;7.40;;;;;;;-0.40;100.00;101865.50;5209368;28;20025;-61
2022/01/06 05:26:46;;;;;;;10.10;8.82;;;;;;;-0.47;100.00;101851.19;5209736;28;20025;-59
2022/01/06 05:29:16;;;;;;;12.57;7.82;;;;;;;-0.40;100.00;101873.47;5209603;28;20374;-61
2022/01/06 05:31:47;;;;;;;16.33;8.13;;;;;;;-0.45;100.00;101878.41;5209366;28;20083;-60
2022/01/06 05:34:17;;;;;;;7.82;7.10;;;;;;;-0.53;100.00;101879.19;5209400;28;20082;-60
2022/01/06 05:36:48;;;;;;;16.35;8.52;;;;;;;-0.65;100.00;101869.03;5208743;28;20111;-63
2022/01/06 05:39:18;;;;;;;9.85;7.18;;;;;;;-0.72;100.00;101877.63;5209464;28;20501;-63
2022/01/06 05:41:49;;;;;;;7.45;6.85;;;;;;;-0.80;100.00;101876.72;5209554;28;20503;-61
2022/01/06 05:44:20;;;;;;;8.02;7.50;;;;;;;-0.79;100.00;101878.38;5226463;28;20032;-60
2022/01/06 05:46:50;;;;;;;8.18;7.00;;;;;;;-0.85;100.00;101873.72;5208848;28;20102;-63
2022/01/06 05:49:21;;;;;;;17.40;8.38;;;;;;;-0.78;100.00;101880.88;5208772;28;20067;-62
2022/01/06 05:51:51;;;;;;;14.30;7.50;;;;;;;-0.92;100.00;101870.03;5208879;28;20036;-63
2022/01/06 05:54:22;;;;;;;11.07;6.90;;;;;;;-0.86;100.00;101894.09;5208245;28;20511;-63
2022/01/06 05:56:52;;;;;;;9.07;7.18;;;;;;;-0.97;100.00;101870.50;5226756;28;20029;-64
2022/01/06 05:59:23;;;;;;;9.30;8.38;;;;;;;-0.84;100.00;101889.47;5208686;28;20029;-61
2022/01/06 06:01:53;;;;;;;12.10;8.73;;;;;;;-0.81;100.00;101891.81;5208496;28;20397;-63
2022/01/06 06:04:23;;;;;;;8.80;8.05;;;;;;;-0.81;100.00;101902.41;5208370;28;20025;-63
2022/01/06 06:06:54;;;;;;;8.82;7.32;;;;;;;-0.81;100.00;101893.63;5208527;28;20013;-62
2022/01/06 06:09:25;;;;;;;13.93;9.35;;;;;;;-0.76;100.00;101892.16;5208205;28;20389;-60
2022/01/06 06:11:55;;;;;;;11.00;7.90;;;;;;;-0.82;100.00;101895.44;5208155;28;20451;-61
2022/01/06 06:14:25;;;;;;;17.17;9.93;;;;;;;-0.78;100.00;101893.31;5208162;28;20025;-61
2022/01/06 06:16:56;;;;;;;17.23;11.52;;;;;;;-0.71;100.00;101900.50;5208237;28;20028;-64
2022/01/06 06:19:26;;;;;;;9.40;7.60;;;;;;;-0.79;100.00;101883.69;5208145;28;20497;-63
2022/01/06 06:21:57;;;;;;;8.52;7.88;;;;;;;-0.75;100.00;101895.66;5226069;28;20501;-61
2022/01/06 06:24:27;;;;;;;14.45;11.80;;;;;;;-0.82;100.00;101895.44;5225831;28;20074;-62
2022/01/06 06:26:58;;;;;;;11.32;9.75;;;;;;;-0.79;100.00;101908.41;5208069;28;20017;-60
2022/01/06 06:29:28;;;;;;;14.43;12.20;;;;;;;-0.74;100.00;101902.63;5207919;28;20029;-61
2022/01/06 06:31:59;;;;;;;20.63;9.43;;;;;;;-0.82;100.00;101898.09;5207967;28;20086;-65
2022/01/06 06:34:29;;;;;;;14.15;9.57;;;;;;;-0.83;100.00;101907.03;5207785;28;20393;-63
2022/01/06 06:37:00;;;;;;;14.40;10.55;;;;;;;-0.93;100.00;101908.16;5225846;28;20028;-63
2022/01/06 06:39:30;;;;;;;12.00;10.70;;;;;;;-0.98;100.00;101908.59;5207978;28;20040;-63
2022/01/06 06:42:01;;;;;;;14.63;9.02;;;;;;;-0.91;100.00;101922.91;5207804;28;20543;-63
2022/01/06 06:44:31;;;;;;;15.95;11.93;;;;;;;-0.91;100.00;101930.88;5207895;28;20082;-60
2022/01/06 06:47:02;;;;;;;11.75;10.60;;;;;;;-0.99;100.00;101922.84;5204711;28;20501;-64
2022/01/06 06:49:33;;;;;;;12.05;11.00;;;;;;;-0.92;100.00;101939.81;5223255;28;20025;-61
2022/01/06 06:52:04;;;;;;;13.82;11.05;;;;;;;-0.92;100.00;101938.97;5216479;28;20058;-61
2022/01/06 06:54:34;;;;;;;13.38;11.50;;;;;;;-1.01;100.00;101930.13;5226408;28;20033;-63
2022/01/06 06:57:05;;;;;;;13.95;12.73;;;;;;;-0.99;100.00;101941.41;5206600;28;20493;-63
2022/01/06 06:59:36;;;;;;;13.07;11.73;;;;;;;-0.90;100.00;101950.25;5206974;28;20115;-64
2022/01/06 07:02:07;;;;;;;12.82;11.40;;;;;;;-0.91;100.00;101954.72;5206733;28;20040;-61
2022/01/06 07:04:37;;;;;;;14.57;13.27;;;;;;;-0.89;100.00;101952.75;5206455;28;20507;-61
2022/01/06 07:07:08;;;;;;;12.23;10.82;;;;;;;-0.88;100.00;101961.53;5206721;28;20028;-61
2022/01/06 07:09:38;;;;;;;12.40;10.77;;;;;;;-0.91;100.00;101957.38;5205473;28;20075;-66
2022/01/06 07:12:09;;;;;;;21.38;12.68;;;;;;;-0.91;100.00;101962.69;5205467;28;20024;-63
2022/01/06 07:14:40;;;;;;;14.40;12.93;;;;;;;-0.90;100.00;101963.53;5206463;28;20033;-64
2022/01/06 07:17:10;;;;;;;13.88;12.48;;;;;;;-0.98;100.00;101953.69;5206972;28;20108;-63
2022/01/06 07:19:41;;;;;;;14.68;13.55;;;;;;;-0.92;100.00;101966.31;5224435;28;20059;-63
2022/01/06 07:22:11;;;;;;;16.30;11.52;;;;;;;-1.06;100.00;101949.13;5224446;28;20025;-64
2022/01/06 07:24:41;;;;;;;22.77;17.50;;;;;;;-0.89;100.00;101971.31;5206363;28;20079;-62
2022/01/06 07:27:12;;;;;;;16.38;14.02;;;;;;;-0.89;100.00;101973.97;5206817;28;20032;-65
2022/01/06 07:29:42;;;;;;;16.38;13.27;;;;;;;-0.87;100.00;101976.47;5206646;28;20031;-64
2022/01/06 07:32:13;;;;;;;14.50;13.43;;;;;;;-0.84;100.00;101976.97;5206231;28;20536;-64
2022/01/06 07:34:43;;;;;;;16.02;14.80;;;;;;;-0.86;100.00;101976.28;5206171;28;20021;-64
2022/01/06 07:37:14;;;;;;;18.65;15.52;;;;;;;-0.87;100.00;101974.66;5206571;28;20036;-61
2022/01/06 07:39:44;;;;;;;14.90;13.70;;;;;;;-0.94;100.00;101962.16;5206591;28;20401;-63
2022/01/06 07:42:15;;;;;;;14.80;13.18;;;;;;;-0.91;100.00;101981.25;5206336;28;20485;-65
2022/01/06 07:44:47;;;;;;;17.58;14.32;;;;;;;-0.90;100.00;101976.78;5223875;28;20017;-64
2022/01/06 07:47:19;;;;;;;27.83;15.10;;;;;;;-0.96;100.00;101980.03;5206487;28;20052;-63
2022/01/06 07:49:49;;;;;;;26.05;15.80;;;;;;;-0.99;100.00;101985.63;5206549;28;20378;-64
2022/01/06 07:52:21;;;;;;;16.77;13.30;;;;;;;-1.03;100.00;101983.28;5206353;28;20090;-64
2022/01/06 07:54:52;;;;;;;18.40;13.57;;;;;;;-1.02;100.00;101982.31;5205675;28;20039;-64
2022/01/06 07:57:22;;;;;;;15.43;13.98;;;;;;;-1.05;100.00;101982.59;5206345;28;20029;-64
2022/01/06 07:59:53;;;;;;;16.98;15.32;;;;;;;-1.11;100.00;101983.22;5206897;28;20025;-64
2022/01/06 08:02:23;;;;;;;14.90;13.48;;;;;;;-1.16;100.00;101979.38;5210235;28;20551;-63
2022/01/06 08:04:53;;;;;;;14.40;12.90;;;;;;;-1.21;100.00;101979.00;5226586;28;20021;-64
2022/01/06 08:07:24;;;;;;;14.48;12.82;;;;;;;-1.06;100.00;102006.63;5210181;28;20033;-63
2022/01/06 08:09:54;;;;;;;15.93;14.52;;;;;;;-1.11;100.00;101996.47;5209897;28;20017;-64
2022/01/06 08:12:25;;;;;;;21.48;12.52;;;;;;;-1.07;100.00;102002.28;5209863;28;20120;-62
2022/01/06 08:14:55;;;;;;;22.40;14.32;;;;;;;-1.05;100.00;102009.13;5209647;28;20485;-61
2022/01/06 08:17:26;;;;;;;16.75;15.05;;;;;;;-1.06;100.00;101996.00;5209815;28;20529;-62
2022/01/06 08:19:57;;;;;;;16.42;13.75;;;;;;;-1.14;100.00;101998.59;5209630;28;20028;-61
2022/01/06 08:22:29;;;;;;;16.02;14.55;;;;;;;-1.24;100.00;101998.69;5209895;28;20052;-61
2022/01/06 08:24:59;;;;;;;14.95;13.38;;;;;;;-1.26;100.00;102008.59;5209596;28;20035;-59
2022/01/06 08:27:30;;;;;;;22.42;16.88;;;;;;;-1.22;100.00;102011.78;5209890;28;20017;-60
2022/01/06 08:30:00;;;;;;;18.90;17.15;;;;;;;-1.20;100.00;102017.75;5209880;28;20052;-60
2022/01/06 08:32:31;;;;;;;15.40;13.93;;;;;;;-1.17;100.00;102009.50;5209748;28;20040;-58
2022/01/06 08:35:03;;;;;;;16.75;15.20;;;;;;;-1.07;100.00;102015.56;5210122;28;20385;-58
2022/01/06 08:37:35;;;;;;;18.40;16.50;;;;;;;-1.09;100.00;102002.44;5209249;28;20017;-58
2022/01/06 08:40:06;;;;;;;16.45;15.23;;;;;;;-0.90;100.00;102022.69;5209489;28;20029;-58
2022/01/06 08:42:37;;;;;;;18.05;16.23;;;;;;;-0.88;100.00;102033.97;5209945;28;20033;-60
2022/01/06 08:45:09;;;;;;;15.25;13.90;;;;;;;-0.88;100.00;102033.97;5209915;28;20047;-62
2022/01/06 08:47:39;;;;;;;17.85;16.20;;;;;;;-0.82;100.00;102024.53;5209346;28;20033;-61
2022/01/06 08:50:11;;;;;;;21.27;17.73;;;;;;;-0.78;100.00;102031.22;5209299;28;20553;-61
2022/01/06 08:52:41;;;;;;;17.20;15.65;;;;;;;-0.77;100.00;102025.75;5208386;28;20032;-64
2022/01/06 08:55:12;;;;;;;19.55;15.52;;;;;;;-0.70;100.00;102047.22;5208381;28;20040;-63
2022/01/06 08:57:42;;;;;;;14.95;13.55;;;;;;;-0.85;100.00;102009.78;5227331;28;20480;-58
2022/01/06 09:00:13;;;;;;;18.10;16.05;;;;;;;-0.76;100.00;102016.81;5209105;28;20028;-62
2022/01/06 09:02:44;;;;;;;15.55;14.40;;;;;;;-0.74;100.00;102008.72;5209132;28;20033;-60
2022/01/06 09:05:15;;;;;;;15.70;14.15;;;;;;;-0.53;100.00;102040.19;5208942;28;20572;-61
2022/01/06 09:07:46;;;;;;;17.95;14.80;;;;;;;-0.57;100.00;102033.53;5208497;28;20059;-62
2022/01/06 09:10:16;;;;;;;18.70;15.75;;;;;;;-0.52;100.00;102040.03;5208750;28;20062;-63
2022/01/06 09:12:47;;;;;;;31.83;15.88;;;;;;;-0.37;100.00;102051.78;5207833;28;20029;-61
2022/01/06 09:15:17;;;;;;;17.60;13.57;;;;;;;-0.36;100.00;102042.00;5208717;28;20031;-62
2022/01/06 09:17:47;;;;;;;17.13;13.65;;;;;;;-0.23;100.00;102039.75;5208667;28;20024;-64
2022/01/06 09:20:18;;;;;;;21.25;16.75;;;;;;;-0.27;100.00;102029.59;5208576;28;20035;-62
2022/01/06 09:22:49;;;;;;;21.65;19.05;;;;;;;-0.27;100.00;102005.72;5208615;28;20041;-62
2022/01/06 09:25:19;;;;;;;16.52;14.88;;;;;;;0.08;100.00;102041.91;5208513;28;20024;-62
2022/01/06 09:27:50;;;;;;;23.63;17.40;;;;;;;0.14;100.00;102054.56;5208697;28;20063;-62
2022/01/06 09:30:23;;;;;;;21.63;16.55;;;;;;;0.17;100.00;102038.31;5208287;28;20017;-61
2022/01/06 09:32:54;;;;;;;18.90;14.80;;;;;;;0.33;100.00;102049.00;5208122;28;20082;-64
2022/01/06 09:35:24;;;;;;;16.50;14.15;;;;;;;0.36;100.00;102050.50;5208211;28;20264;-64
2022/01/06 09:37:55;;;;;;;34.95;16.20;;;;;;;0.49;100.00;102062.38;5208265;28;20029;-62
2022/01/06 09:40:25;;;;;;;16.88;13.85;;;;;;;0.57;100.00;102061.56;5208360;28;20029;-65
2022/01/06 09:42:56;;;;;;;20.85;13.68;;;;;;;0.63;100.00;102059.06;5241455;28;20021;-64
2022/01/06 09:45:27;;;;;;;19.63;12.70;;;;;;;0.72;100.00;102067.91;5207775;28;20040;-62
2022/01/06 09:47:58;;;;;;;16.02;13.63;;;;;;;0.77;100.00;102064.78;5208079;28;20025;-66
2022/01/06 09:50:28;;;;;;;26.33;14.52;;;;;;;0.88;100.00;102067.09;5208063;28;20485;-63
2022/01/06 09:52:59;;;;;;;21.05;16.08;;;;;;;0.93;100.00;102054.16;5207867;28;20466;-63
2022/01/06 09:55:29;;;;;;;36.33;16.67;;;;;;;0.98;100.00;102057.16;5207843;28;20256;-61
2022/01/06 09:58:01;;;;;;;19.98;15.98;;;;;;;0.99;100.00;102057.00;5207872;28;20056;-60
2022/01/06 10:00:34;;;;;;;26.88;16.70;;;;;;;0.92;100.00;102028.56;5207979;28;20035;-63
2022/01/06 10:03:07;;;;;;;14.52;13.27;;;;;;;1.19;100.00;102064.66;5207858;28;20055;-61
2022/01/06 10:05:43;;;;;;;19.30;16.75;;;;;;;1.24;100.00;102065.84;5207787;28;20044;-62
2022/01/06 10:08:14;;;;;;;23.65;12.63;;;;;;;1.34;100.00;102068.34;5207914;28;20029;-63
2022/01/06 10:10:44;;;;;;;20.95;13.48;;;;;;;1.25;100.00;102045.38;5207704;28;20021;-62
2022/01/06 10:13:16;;;;;;;16.85;12.80;;;;;;;1.48;100.00;102061.50;5207694;28;20119;-61
2022/01/06 10:15:46;;;;;;;13.80;12.43;;;;;;;1.54;100.00;102068.84;5207575;28;20021;-61
2022/01/06 10:18:17;;;;;;;16.58;12.88;;;;;;;1.61;100.00;102061.84;5207558;28;20459;-61
2022/01/06 10:20:48;;;;;;;22.98;11.90;;;;;;;1.61;100.00;102045.88;5207058;28;20029;-62
2022/01/06 10:23:19;;;;;;;26.45;12.43;;;;;;;1.42;100.00;102011.63;5206805;28;20028;-61
2022/01/06 10:25:49;;;;;;;19.35;13.32;;;;;;;1.77;100.00;102061.81;5207289;28;20484;-61
2022/01/06 10:28:22;;;;;;;14.82;12.00;;;;;;;1.83;100.00;102057.66;5207675;28;20025;-59
2022/01/06 10:30:53;;;;;;;30.48;15.25;;;;;;;1.88;100.00;102064.16;5207244;28;20033;-59
2022/01/06 10:33:35;;;;;;;10.88;10.07;;;;;;;1.96;100.00;102064.13;5206754;28;20101;-61
2022/01/06 10:36:07;;;;;;;23.88;13.07;;;;;;;2.01;100.00;102058.31;5207551;28;20028;-61
2022/01/06 10:38:38;;;;;;;13.63;12.07;;;;;;;2.09;100.00;102062.75;5240581;28;20039;-60
2022/01/06 10:41:13;;;;;;;18.45;11.50;;;;;;;2.12;100.00;102059.75;5207713;28;20032;-60
2022/01/06 10:43:52;;;;;;;15.13;10.02;;;;;;;2.21;100.00;102072.06;5207036;28;20124;-60
2022/01/06 10:46:38;;;;;;;15.93;11.43;;;;;;;2.25;100.00;102066.22;5207610;28;20447;-59
2022/01/06 10:49:12;;;;;;;18.85;14.43;;;;;;;2.33;100.00;102058.16;5207645;28;20024;-60
2022/01/06 10:51:45;;;;;;;16.17;12.82;;;;;;;2.37;100.00;102053.31;5207741;28;20032;-60
2022/01/06 10:54:22;;;;;;;14.65;12.10;;;;;;;2.43;100.00;102065.97;5207245;28;20033;-62
2022/01/06 10:57:12;;;;;;;15.90;11.55;;;;;;;2.49;100.00;102051.13;5207610;28;20112;-62
2022/01/06 10:59:44;;;;;;;24.85;15.98;;;;;;;2.57;100.00;102054.59;5207598;28;20090;-61
2022/01/06 11:02:24;;;;;;;15.00;10.75;;;;;;;2.71;100.00;102061.00;5225174;28;20028;-60
2022/01/06 11:04:55;;;;;;;15.73;11.50;;;;;;;2.90;100.00;102051.72;5207211;28;20024;-59
2022/01/06 11:07:26;;;;;;;10.35;9.43;;;;;;;3.13;100.00;102055.25;5225835;28;20267;-60
2022/01/06 11:09:57;;;;;;;12.88;11.55;;;;;;;3.42;100.00;102051.03;5207579;28;20025;-60
2022/01/06 11:12:29;;;;;;;25.35;12.65;;;;;;;3.68;100.00;102046.13;5207277;28;20052;-62
2022/01/06 11:15:00;;;;;;;25.75;12.80;;;;;;;3.65;100.00;102015.25;5206856;28;20025;-60
2022/01/06 11:17:31;;;;;;;19.52;12.80;;;;;;;3.88;100.00;102049.09;5207470;28;20013;-60
2022/01/06 11:20:03;;;;;;;26.48;11.27;;;;;;;4.02;100.00;102043.75;5207043;28;20052;-62
2022/01/06 11:22:33;;;;;;;13.10;11.90;;;;;;;4.14;100.00;102049.47;5207284;28;20024;-60
2022/01/06 11:25:04;;;;;;;10.05;8.90;;;;;;;4.22;100.00;102046.72;5207338;28;20480;-60
2022/01/06 11:27:36;;;;;;;12.13;9.40;;;;;;;4.31;100.00;102058.16;5207323;28;20028;-60
2022/01/06 11:30:09;;;;;;;13.88;9.25;;;;;;;4.32;100.00;102047.25;5207372;28;20393;-61
2022/01/06 11:32:42;;;;;;;12.02;10.80;;;;;;;4.33;100.00;102048.88;5207372;28;20032;-60
2022/01/06 11:35:18;;;;;;;17.45;9.18;;;;;;;4.37;100.00;102049.34;5208415;28;20028;-62
2022/01/06 11:37:52;;;;;;;17.00;8.57;;;;;;;4.45;100.00;102043.91;5223775;28;20025;-62